CheckWX is a tool to help pilots better visualize weather data.  It is not intended as a substitute for an official pre-flight weather briefing.

07:05:32 UTC

22N METAR
Jake Arner Memorial Airport
Lehighton, Pennsylvania, USA
Current

11 mins ago

K22N 160655Z AUTO 00000KT 10SM OVC075 16/16 A2993 RMK AO2
Observed
Jun-16 @ 06:55 UTC
Visibility
10 SM
Flight Rules
VFR
Cloud Levels
  • Overcast at 7,500' AGL
Temperature
16°C / 61°F
Dewpoint
16°C / 61°F
Humidity
100%
Altimeter
29.93" Hg
Pressure
1013.52 hPa
Previous

30 mins ago

K22N 160636Z AUTO 00000KT 10SM OVC075 16/16 A2994 RMK AO2
Observed
Jun-16 @ 06:36 UTC
Visibility
10 SM
Flight Rules
VFR
Cloud Levels
  • Overcast at 7,500' AGL
Temperature
16°C / 61°F
Dewpoint
16°C / 61°F
Humidity
100%
Altimeter
29.94" Hg
Pressure
1013.92 hPa
Previous

46 mins ago

K22N 160620Z AUTO 00000KT 10SM BKN070 OVC090 16/16 A2994 RMK AO2
Observed
Jun-16 @ 06:20 UTC
Visibility
10 SM
Flight Rules
VFR
Cloud Levels
  • Broken at 7,000' AGL
  • Overcast at 9,000' AGL
Temperature
16°C / 61°F
Dewpoint
16°C / 61°F
Humidity
100%
Altimeter
29.94" Hg
Pressure
1013.92 hPa